Time;durP1;ratioP1;P1;durP2;ratioP2;P2;SDS_P1;SDS_P2;PMS_P1;PMS_P2;Temp;Humidity;BMP_temperature;BMP_pressure;BME280_temperature;BME280_humidity;BME280_pressure;Samples;Min_cycle;Max_cycle;Signal;HPM_P1;HPM_P2
2022/07/30 00:02:04;;;;;;;8.50;4.60;;;15.80;99.90;;;;;;5051214;28;20727;-75
2022/07/30 00:04:31;;;;;;;11.68;4.57;;;15.80;99.90;;;;;;5053314;28;20052;-73
2022/07/30 00:06:58;;;;;;;10.88;4.50;;;15.80;99.90;;;;;;5070229;28;20044;-74
2022/07/30 00:09:24;;;;;;;8.20;4.45;;;15.60;99.90;;;;;;5064894;28;20135;-73
2022/07/30 00:15:30;;;;;;;7.95;4.65;;;15.70;99.90;;;;;;5060190;28;20169;-72
2022/07/30 00:17:56;;;;;;;10.88;5.07;;;15.60;99.90;;;;;;5072879;28;20131;-74
2022/07/30 00:20:22;;;;;;;10.90;4.72;;;15.60;99.90;;;;;;5068346;28;20047;-73
2022/07/30 00:22:47;;;;;;;9.18;4.72;;;15.50;99.90;;;;;;5045104;28;20059;-74
2022/07/30 00:25:13;;;;;;;10.15;4.70;;;15.60;99.90;;;;;;5066546;28;20489;-75
2022/07/30 00:27:39;;;;;;;11.35;4.90;;;15.50;99.90;;;;;;5064045;28;20032;-75
2022/07/30 00:30:05;;;;;;;9.20;4.90;;;15.50;99.90;;;;;;5068411;28;20491;-75
2022/07/30 00:32:34;;;;;;;8.60;4.88;;;15.40;99.90;;;;;;5053148;28;20055;-75
2022/07/30 00:35:00;;;;;;;13.70;5.10;;;15.40;99.90;;;;;;5068274;28;20058;-75
2022/07/30 00:37:25;;;;;;;8.52;5.30;;;15.40;99.90;;;;;;5054034;28;20527;-77
2022/07/30 00:39:51;;;;;;;11.40;5.72;;;15.40;99.90;;;;;;5065763;28;20060;-76
2022/07/30 00:42:24;;;;;;;12.30;5.22;;;15.40;99.90;;;;;;5065799;28;20032;-76
2022/07/30 00:44:52;;;;;;;8.52;5.00;;;15.50;99.90;;;;;;5065111;28;20041;-75
2022/07/30 00:47:19;;;;;;;9.65;4.97;;;15.40;99.90;;;;;;5067318;28;20037;-75
2022/07/30 00:49:45;;;;;;;8.35;5.15;;;15.40;99.90;;;;;;5068838;28;20115;-76
2022/07/30 00:52:11;;;;;;;11.48;4.95;;;15.40;99.90;;;;;;5048786;28;20106;-76
2022/07/30 00:54:37;;;;;;;7.45;4.57;;;15.40;99.90;;;;;;5067090;28;20388;-76
2022/07/30 00:57:03;;;;;;;9.55;4.53;;;15.30;99.90;;;;;;5064958;28;20123;-75
2022/07/30 00:59:30;;;;;;;9.95;4.75;;;15.30;99.90;;;;;;5065947;28;20036;-76
2022/07/30 01:01:58;;;;;;;8.10;4.55;;;15.30;99.90;;;;;;5063413;28;20122;-76
2022/07/30 01:04:23;;;;;;;7.95;4.53;;;15.20;99.90;;;;;;5064752;28;20063;-75
2022/07/30 01:06:49;;;;;;;6.38;4.50;;;15.30;99.90;;;;;;5065695;28;20072;-74
2022/07/30 01:09:15;;;;;;;10.70;5.00;;;15.30;99.90;;;;;;5067414;28;20395;-75
2022/07/30 01:11:41;;;;;;;7.10;4.40;;;15.30;99.90;;;;;;5044352;28;20045;-74
2022/07/30 01:14:08;;;;;;;6.50;4.80;;;15.20;99.90;;;;;;5066805;28;20044;-75
2022/07/30 01:16:35;;;;;;;6.25;4.50;;;15.20;99.90;;;;;;5067533;28;20045;-75
2022/07/30 01:20:06;;;;;;;6.93;4.85;;;15.30;99.90;;;;;;5047948;28;20492;-76
2022/07/30 01:22:27;;;;;;;6.60;4.60;;;15.20;99.90;;;;;;5049058;28;20056;-76
2022/07/30 01:25:02;;;;;;;8.05;4.80;;;15.20;99.90;;;;;;5061280;28;20064;-73
2022/07/30 01:27:31;;;;;;;10.10;5.05;;;15.20;99.90;;;;;;5065342;28;20458;-75
2022/07/30 01:30:00;;;;;;;6.68;5.05;;;15.10;99.90;;;;;;5060908;28;20060;-74
2022/07/30 01:32:27;;;;;;;6.85;5.00;;;15.10;99.90;;;;;;5065886;28;20067;-75
2022/07/30 01:34:55;;;;;;;9.15;4.78;;;15.10;99.90;;;;;;5067745;28;20032;-73
2022/07/30 01:37:23;;;;;;;5.80;4.30;;;15.00;99.90;;;;;;5053203;28;20041;-74
2022/07/30 01:39:49;;;;;;;6.97;4.55;;;15.00;99.90;;;;;;5054053;28;20091;-72
2022/07/30 01:42:18;;;;;;;7.13;4.32;;;15.00;99.90;;;;;;5050154;28;20052;-74
2022/07/30 01:44:45;;;;;;;5.68;5.13;;;14.90;99.90;;;;;;5048349;28;20044;-75
2022/07/30 01:47:13;;;;;;;10.02;5.20;;;14.90;99.90;;;;;;5068290;28;20047;-75
2022/07/30 01:49:40;;;;;;;7.82;5.10;;;14.90;99.90;;;;;;5051419;28;20180;-75
2022/07/30 01:52:08;;;;;;;10.73;5.90;;;14.90;99.90;;;;;;5043599;28;20040;-77
2022/07/30 01:54:36;;;;;;;10.35;6.03;;;14.80;99.90;;;;;;5047293;28;20044;-75
2022/07/30 01:57:03;;;;;;;11.55;6.30;;;14.90;99.90;;;;;;5045955;28;20056;-74
2022/07/30 01:59:32;;;;;;;9.60;6.63;;;14.90;99.90;;;;;;5050089;28;20040;-76
2022/07/30 02:01:59;;;;;;;9.20;6.68;;;14.80;99.90;;;;;;5063275;28;20044;-76
2022/07/30 02:04:26;;;;;;;11.15;7.53;;;14.90;99.90;;;;;;5064205;28;20048;-76
2022/07/30 02:07:01;;;;;;;9.63;8.02;;;14.80;99.90;;;;;;5064621;28;20039;-75
2022/07/30 02:09:48;;;;;;;11.98;8.18;;;14.80;99.90;;;;;;5066757;28;20071;-75
2022/07/30 02:12:27;;;;;;;9.80;7.72;;;14.70;99.90;;;;;;5068039;28;20060;-75
2022/07/30 02:15:11;;;;;;;12.07;8.40;;;14.70;99.90;;;;;;5070791;28;20048;-74
2022/07/30 02:17:48;;;;;;;12.48;7.93;;;14.60;99.90;;;;;;5070758;28;20250;-74
2022/07/30 02:20:15;;;;;;;10.27;7.70;;;14.50;99.90;;;;;;5059231;28;20384;-75
2022/07/30 02:22:45;;;;;;;12.32;7.32;;;14.40;99.90;;;;;;5052597;28;22007;-73
2022/07/30 02:25:17;;;;;;;14.10;8.43;;;14.50;99.90;;;;;;5069146;28;20301;-75
2022/07/30 02:27:45;;;;;;;11.93;8.55;;;14.50;99.90;;;;;;5067125;28;20069;-75
2022/07/30 02:30:11;;;;;;;12.02;8.15;;;14.60;99.90;;;;;;5053459;28;20557;-75
2022/07/30 02:32:41;;;;;;;15.23;8.27;;;14.60;99.90;;;;;;5070256;28;20055;-74
2022/07/30 02:35:19;;;;;;;13.88;8.45;;;14.60;99.90;;;;;;5068032;28;20056;-74
2022/07/30 02:37:48;;;;;;;14.80;9.60;;;14.60;99.90;;;;;;5066120;28;20127;-76
2022/07/30 02:40:17;;;;;;;9.55;7.82;;;14.60;99.90;;;;;;5039932;28;20048;-74
2022/07/30 02:42:46;;;;;;;7.65;6.75;;;14.60;99.90;;;;;;5065344;28;20036;-74
2022/07/30 02:45:14;;;;;;;8.25;6.10;;;14.60;99.90;;;;;;5068330;28;20143;-74
2022/07/30 02:47:41;;;;;;;10.10;6.13;;;14.60;99.90;;;;;;5071888;28;20045;-74
2022/07/30 02:50:09;;;;;;;7.05;5.72;;;14.50;99.90;;;;;;5070314;28;20040;-75
2022/07/30 02:52:37;;;;;;;7.22;5.60;;;14.50;99.90;;;;;;5070193;28;20067;-75
2022/07/30 02:55:05;;;;;;;5.50;5.00;;;14.50;99.90;;;;;;5065695;28;20107;-74
2022/07/30 02:57:32;;;;;;;5.80;4.90;;;14.50;99.90;;;;;;5068271;28;20056;-75
2022/07/30 03:00:00;;;;;;;5.55;5.05;;;14.40;99.90;;;;;;5068301;28;20052;-75
2022/07/30 03:02:26;;;;;;;5.78;4.80;;;14.40;99.90;;;;;;5072054;28;20033;-73
2022/07/30 03:04:53;;;;;;;11.68;5.53;;;14.40;99.90;;;;;;5071434;28;20525;-71
2022/07/30 03:07:20;;;;;;;8.55;5.72;;;14.30;99.90;;;;;;5070001;28;20064;-74
2022/07/30 03:09:46;;;;;;;9.25;5.80;;;14.30;99.90;;;;;;5066911;28;20044;-75
2022/07/30 03:12:13;;;;;;;7.85;6.93;;;14.40;99.90;;;;;;5066060;28;20086;-75
2022/07/30 03:14:39;;;;;;;11.55;7.05;;;14.30;99.90;;;;;;5067376;28;20135;-76
2022/07/30 03:17:07;;;;;;;9.70;7.78;;;14.40;99.90;;;;;;5067829;28;20149;-77
2022/07/30 03:19:36;;;;;;;10.20;8.13;;;14.30;99.90;;;;;;5068191;28;20440;-75
2022/07/30 03:22:05;;;;;;;10.80;7.95;;;14.40;99.90;;;;;;5069205;28;20070;-76
2022/07/30 03:24:36;;;;;;;10.38;7.57;;;14.30;99.90;;;;;;5049208;28;20060;-75
2022/07/30 03:27:03;;;;;;;8.57;7.00;;;14.20;99.90;;;;;;5052031;28;20036;-74
2022/07/30 03:29:30;;;;;;;10.20;7.10;;;14.20;99.90;;;;;;5047787;28;20511;-74
2022/07/30 03:31:56;;;;;;;10.05;6.80;;;14.20;99.90;;;;;;5069614;28;20029;-75
2022/07/30 03:34:23;;;;;;;9.75;7.50;;;14.10;99.90;;;;;;5067562;28;20040;-75
2022/07/30 03:36:49;;;;;;;9.57;7.53;;;14.20;99.90;;;;;;5069857;28;20507;-75
2022/07/30 03:39:17;;;;;;;12.75;7.60;;;14.10;99.90;;;;;;5065444;28;20049;-74
2022/07/30 03:41:44;;;;;;;10.68;8.10;;;14.10;99.90;;;;;;5068425;28;20040;-75
2022/07/30 03:44:10;;;;;;;12.35;8.20;;;14.10;99.90;;;;;;5047462;28;20052;-76
2022/07/30 03:46:36;;;;;;;10.27;7.50;;;14.10;99.90;;;;;;5066161;28;20082;-74
2022/07/30 03:49:04;;;;;;;11.25;7.63;;;14.10;99.90;;;;;;5068762;28;20043;-74
2022/07/30 03:51:35;;;;;;;13.77;7.50;;;14.10;99.90;;;;;;5069974;28;20048;-77
2022/07/30 03:54:03;;;;;;;9.52;7.38;;;14.00;99.90;;;;;;5066842;28;20411;-75
2022/07/30 03:56:29;;;;;;;7.85;6.90;;;14.00;99.90;;;;;;5066276;28;20163;-74
2022/07/30 03:58:54;;;;;;;8.40;7.05;;;14.00;99.90;;;;;;5048807;28;20178;-75
2022/07/30 04:01:27;;;;;;;9.68;6.80;;;14.00;99.90;;;;;;5068960;28;20114;-76
2022/07/30 04:03:52;;;;;;;9.50;7.38;;;14.10;99.90;;;;;;5048445;28;20056;-75
2022/07/30 04:06:18;;;;;;;10.15;7.07;;;13.90;99.90;;;;;;5048907;28;20056;-75
2022/07/30 04:08:44;;;;;;;7.80;6.65;;;13.90;99.90;;;;;;5052671;28;20059;-74
2022/07/30 04:11:09;;;;;;;9.73;7.35;;;13.90;99.90;;;;;;5066287;28;20082;-75
2022/07/30 04:13:35;;;;;;;14.85;7.07;;;13.90;99.90;;;;;;5067709;28;20072;-74
2022/07/30 04:16:11;;;;;;;12.52;7.50;;;13.90;99.90;;;;;;5049430;28;20071;-75
2022/07/30 04:18:43;;;;;;;10.27;6.90;;;13.90;99.90;;;;;;5065877;28;20060;-75
2022/07/30 04:21:11;;;;;;;7.85;6.53;;;13.90;99.90;;;;;;5064015;28;20056;-75
2022/07/30 04:23:39;;;;;;;8.68;6.97;;;13.90;99.90;;;;;;5069437;28;20439;-75
2022/07/30 04:26:06;;;;;;;9.45;7.25;;;13.90;99.90;;;;;;5069015;28;20083;-76
2022/07/30 04:28:50;;;;;;;11.90;7.30;;;14.00;99.90;;;;;;5070180;28;20044;-72
2022/07/30 04:31:16;;;;;;;8.10;6.95;;;14.00;99.90;;;;;;5071193;28;20197;-73
2022/07/30 04:33:45;;;;;;;6.90;4.70;;;14.10;99.90;;;;;;5046736;28;20455;-77
2022/07/30 04:36:10;;;;;;;8.18;5.90;;;14.40;99.90;;;;;;5064454;28;20032;-77
2022/07/30 04:38:36;;;;;;;9.23;5.68;;;14.80;99.90;;;;;;5067818;28;20534;-77
2022/07/30 04:41:02;;;;;;;10.18;6.25;;;15.00;99.90;;;;;;5052563;28;20132;-75
2022/07/30 04:43:28;;;;;;;9.60;6.68;;;15.30;99.90;;;;;;5065413;28;20036;-75
2022/07/30 04:45:53;;;;;;;10.07;7.05;;;15.50;99.90;;;;;;5051803;28;20113;-76
2022/07/30 04:48:19;;;;;;;11.00;7.10;;;15.70;99.90;;;;;;5069089;28;20040;-75
2022/07/30 04:50:48;;;;;;;10.88;6.78;;;15.80;99.90;;;;;;5048898;28;20051;-77
2022/07/30 04:53:15;;;;;;;14.15;7.50;;;15.90;99.90;;;;;;5049053;28;20720;-76
2022/07/30 04:55:44;;;;;;;19.17;8.88;;;16.00;99.90;;;;;;5060927;28;20086;-76
2022/07/30 04:58:10;;;;;;;15.57;9.73;;;16.10;99.90;;;;;;5048102;28;20551;-76
2022/07/30 05:00:38;;;;;;;12.20;8.77;;;16.20;99.90;;;;;;5065523;28;20057;-75
2022/07/30 05:03:05;;;;;;;10.88;8.80;;;16.20;99.90;;;;;;5047217;28;20094;-75
2022/07/30 05:05:32;;;;;;;12.30;7.93;;;16.20;99.90;;;;;;5068671;28;20135;-75
2022/07/30 05:07:59;;;;;;;10.57;7.55;;;16.20;99.90;;;;;;5065657;28;20049;-75
2022/07/30 05:10:26;;;;;;;11.57;8.60;;;16.30;99.90;;;;;;5048720;28;20052;-77
2022/07/30 05:12:52;;;;;;;11.93;7.00;;;16.30;99.90;;;;;;5064291;28;20383;-76
2022/07/30 05:15:18;;;;;;;14.70;7.78;;;16.40;99.90;;;;;;5066440;28;20048;-74
2022/07/30 05:17:44;;;;;;;10.57;8.63;;;16.40;99.90;;;;;;5062809;28;20040;-76
2022/07/30 05:20:10;;;;;;;13.05;8.50;;;16.50;99.90;;;;;;5064232;28;20055;-77
2022/07/30 05:22:36;;;;;;;15.27;8.90;;;16.50;99.90;;;;;;5049664;28;20024;-75
2022/07/30 05:25:05;;;;;;;12.43;9.15;;;16.70;99.90;;;;;;5067013;28;20454;-77
2022/07/30 05:27:31;;;;;;;12.32;9.25;;;16.50;99.90;;;;;;5050889;28;20171;-76
2022/07/30 05:29:57;;;;;;;12.23;9.10;;;16.50;99.90;;;;;;5067419;28;20104;-76
2022/07/30 05:32:23;;;;;;;14.60;8.90;;;16.50;99.90;;;;;;5068861;28;20039;-76
2022/07/30 05:34:48;;;;;;;13.32;8.98;;;16.50;99.90;;;;;;5063626;28;20032;-77
2022/07/30 05:37:14;;;;;;;17.38;8.85;;;16.60;99.90;;;;;;5069278;28;20047;-75
2022/07/30 05:39:40;;;;;;;17.73;8.18;;;16.60;99.90;;;;;;5068670;28;20048;-77
2022/07/30 05:42:05;;;;;;;9.18;7.05;;;16.70;99.90;;;;;;5067093;28;20044;-77
2022/07/30 05:44:34;;;;;;;8.52;7.40;;;16.80;99.90;;;;;;5066566;28;20064;-76
2022/07/30 05:47:00;;;;;;;11.00;7.97;;;16.80;99.90;;;;;;5068819;28;20072;-76
2022/07/30 05:49:26;;;;;;;11.88;7.85;;;16.90;99.90;;;;;;5064106;28;20124;-76
2022/07/30 05:51:52;;;;;;;10.55;8.40;;;16.70;99.90;;;;;;5069050;28;20371;-75
2022/07/30 05:54:17;;;;;;;10.88;7.63;;;16.90;99.90;;;;;;5067534;28;20068;-75
2022/07/30 05:56:43;;;;;;;12.50;8.50;;;16.80;99.90;;;;;;5064627;28;20028;-76
2022/07/30 05:59:09;;;;;;;14.32;8.15;;;16.90;99.90;;;;;;5066434;28;20476;-77
2022/07/30 06:01:34;;;;;;;12.27;8.20;;;16.80;99.90;;;;;;5064603;28;20060;-77
2022/07/30 06:04:00;;;;;;;12.25;8.27;;;16.90;99.90;;;;;;5050310;28;20098;-75
2022/07/30 06:06:25;;;;;;;16.95;10.95;;;16.90;99.90;;;;;;5064816;28;20077;-74
2022/07/30 06:08:51;;;;;;;13.60;10.77;;;16.90;99.90;;;;;;5042565;28;20087;-74
2022/07/30 06:11:17;;;;;;;17.92;11.50;;;16.80;99.90;;;;;;5042824;28;20465;-75
2022/07/30 06:13:43;;;;;;;17.63;12.52;;;16.70;99.90;;;;;;5048999;28;20457;-73
2022/07/30 06:16:10;;;;;;;18.00;11.82;;;16.70;99.90;;;;;;5065769;28;20044;-74
2022/07/30 06:18:35;;;;;;;15.95;12.60;;;16.70;99.90;;;;;;5050469;28;20507;-74
2022/07/30 06:21:02;;;;;;;21.10;13.52;;;16.70;99.90;;;;;;5067812;28;20047;-74
2022/07/30 06:23:28;;;;;;;21.33;14.30;;;16.70;99.90;;;;;;5066543;28;20055;-75
2022/07/30 06:25:54;;;;;;;18.63;14.43;;;16.70;99.90;;;;;;5048101;28;20047;-75
2022/07/30 06:28:19;;;;;;;20.42;14.57;;;16.70;99.90;;;;;;5045955;28;20043;-74
2022/07/30 06:30:46;;;;;;;23.85;14.10;;;16.80;99.90;;;;;;5063138;28;20040;-77
2022/07/30 06:33:12;;;;;;;17.50;14.00;;;17.00;99.90;;;;;;5061143;28;20055;-74
2022/07/30 06:35:38;;;;;;;21.80;13.10;;;17.20;99.90;;;;;;5060090;28;20460;-73
2022/07/30 06:38:03;;;;;;;20.23;12.32;;;17.40;99.90;;;;;;5044330;28;20053;-75
2022/07/30 06:40:29;;;;;;;23.40;11.95;;;17.50;99.90;;;;;;5044264;28;20123;-74
2022/07/30 06:43:00;;;;;;;18.05;11.10;;;17.60;99.90;;;;;;5067158;28;20048;-73
2022/07/30 06:45:26;;;;;;;20.92;11.57;;;17.70;99.90;;;;;;5064433;28;20028;-74
2022/07/30 06:47:55;;;;;;;21.48;11.32;;;17.80;99.90;;;;;;5044002;28;20502;-75
2022/07/30 06:50:21;;;;;;;20.52;11.07;;;17.80;99.90;;;;;;5058533;28;20447;-74
2022/07/30 06:52:46;;;;;;;21.40;12.10;;;17.90;99.90;;;;;;5046737;28;20120;-75
2022/07/30 06:55:12;;;;;;;26.17;11.52;;;18.00;99.90;;;;;;5058094;28;20044;-74
2022/07/30 06:57:38;;;;;;;14.85;10.18;;;18.10;99.90;;;;;;5063084;28;20514;-74
2022/07/30 07:00:05;;;;;;;22.70;10.77;;;18.20;99.90;;;;;;5062933;28;20044;-74
2022/07/30 07:02:31;;;;;;;24.15;11.13;;;18.30;99.90;;;;;;5048242;28;20144;-74
2022/07/30 07:04:57;;;;;;;22.20;10.07;;;18.30;99.90;;;;;;5063215;28;20056;-75
2022/07/30 07:07:22;;;;;;;13.77;9.95;;;18.30;99.90;;;;;;5064937;28;20502;-74
2022/07/30 07:09:48;;;;;;;17.92;10.50;;;18.40;99.90;;;;;;5062719;28;20044;-74
2022/07/30 07:12:14;;;;;;;16.17;10.45;;;18.50;99.90;;;;;;5064411;28;20048;-74
2022/07/30 07:14:39;;;;;;;21.58;10.05;;;18.60;99.90;;;;;;5067620;28;20036;-74
2022/07/30 07:17:05;;;;;;;19.85;10.57;;;18.60;99.90;;;;;;5070046;28;20095;-73
2022/07/30 07:19:31;;;;;;;22.52;10.35;;;18.80;99.90;;;;;;5067672;28;20407;-72
2022/07/30 07:21:59;;;;;;;21.40;10.45;;;18.90;99.90;;;;;;5065837;28;20077;-75
2022/07/30 07:24:25;;;;;;;18.33;10.00;;;18.90;99.90;;;;;;5063523;28;20048;-77
2022/07/30 07:26:51;;;;;;;18.85;9.00;;;19.00;99.90;;;;;;5040103;28;20044;-76
2022/07/30 07:29:16;;;;;;;17.30;9.23;;;19.10;99.90;;;;;;5046548;28;20333;-74
2022/07/30 07:31:42;;;;;;;20.60;10.90;;;19.20;99.90;;;;;;5047738;28;20059;-75
2022/07/30 07:34:08;;;;;;;16.80;9.30;;;19.30;99.90;;;;;;5064143;28;20506;-74
2022/07/30 07:36:35;;;;;;;15.30;9.60;;;19.30;99.90;;;;;;5066338;28;20109;-75
2022/07/30 07:39:00;;;;;;;16.85;9.73;;;19.30;99.90;;;;;;5063673;28;20421;-76
2022/07/30 07:41:26;;;;;;;19.02;9.10;;;19.40;99.90;;;;;;5058151;28;20120;-74
2022/07/30 07:43:52;;;;;;;15.40;9.10;;;19.50;99.90;;;;;;5068447;28;20059;-74
2022/07/30 07:46:17;;;;;;;16.67;8.32;;;19.60;99.90;;;;;;5064972;28;20033;-75
2022/07/30 07:48:43;;;;;;;19.15;9.00;;;19.70;99.90;;;;;;5067688;28;20060;-75
2022/07/30 07:51:09;;;;;;;20.35;8.98;;;19.80;99.90;;;;;;5047485;28;20053;-76
2022/07/30 07:53:34;;;;;;;15.85;8.35;;;19.80;99.90;;;;;;5049317;28;20140;-79
2022/07/30 07:56:00;;;;;;;15.32;8.48;;;19.90;99.90;;;;;;5066569;28;20452;-74
2022/07/30 07:58:26;;;;;;;14.90;7.35;;;20.00;99.90;;;;;;5063830;28;20139;-76
2022/07/30 08:00:52;;;;;;;18.25;7.00;;;20.20;99.90;;;;;;5065466;28;20044;-74
2022/07/30 08:03:18;;;;;;;17.10;7.15;;;20.10;99.90;;;;;;5062396;28;20131;-75
2022/07/30 08:05:44;;;;;;;9.90;6.60;;;20.20;99.90;;;;;;5064588;28;20197;-73
2022/07/30 08:08:09;;;;;;;12.60;6.40;;;20.30;99.90;;;;;;5063490;28;20055;-77
2022/07/30 08:10:35;;;;;;;14.65;6.90;;;20.30;99.90;;;;;;5069919;28;20633;-78
2022/07/30 08:13:02;;;;;;;19.48;7.15;;;20.30;99.90;;;;;;5048004;28;20090;-74
2022/07/30 08:15:28;;;;;;;19.98;6.55;;;20.50;99.90;;;;;;5038239;28;20053;-75
2022/07/30 08:17:54;;;;;;;13.90;5.40;;;20.50;99.90;;;;;;5045399;28;20052;-75
2022/07/30 08:20:21;;;;;;;15.27;6.40;;;20.50;99.90;;;;;;5078485;28;20040;-73
2022/07/30 08:22:46;;;;;;;12.65;5.25;;;20.60;99.90;;;;;;5060125;28;20045;-78
2022/07/30 08:25:12;;;;;;;14.43;6.43;;;20.80;99.90;;;;;;5060369;28;20048;-74
2022/07/30 08:27:38;;;;;;;10.40;5.30;;;20.70;99.90;;;;;;5064438;28;20634;-74
2022/07/30 08:30:05;;;;;;;11.15;5.35;;;20.80;99.90;;;;;;5063730;28;20126;-74
2022/07/30 08:32:31;;;;;;;14.18;4.88;;;21.00;99.90;;;;;;5048958;28;20051;-72
2022/07/30 08:34:57;;;;;;;10.45;5.35;;;21.20;99.90;;;;;;5069248;28;20476;-73
2022/07/30 08:37:22;;;;;;;10.23;4.53;;;21.20;99.90;;;;;;5071753;28;20042;-71
2022/07/30 08:39:48;;;;;;;15.77;4.57;;;21.10;99.90;;;;;;5052448;28;20586;-71
2022/07/30 08:42:15;;;;;;;11.40;4.65;;;21.20;99.90;;;;;;5053114;28;20384;-72
2022/07/30 08:44:44;;;;;;;16.38;5.05;;;21.50;99.90;;;;;;5060167;28;20125;-74
2022/07/30 08:47:14;;;;;;;12.93;4.35;;;21.70;99.90;;;;;;5051198;28;20048;-72
2022/07/30 08:49:40;;;;;;;13.50;4.22;;;21.50;99.90;;;;;;5069428;28;20507;-73
2022/07/30 08:52:07;;;;;;;11.43;4.20;;;21.50;99.90;;;;;;5066427;28;20076;-73
2022/07/30 08:54:34;;;;;;;13.65;3.97;;;21.40;99.90;;;;;;5065033;28;20068;-72
2022/07/30 08:57:00;;;;;;;11.50;4.03;;;21.50;99.90;;;;;;5048513;28;20071;-74
2022/07/30 08:59:26;;;;;;;8.50;3.75;;;21.70;99.90;;;;;;5065037;28;20080;-73
2022/07/30 09:01:52;;;;;;;10.80;3.97;;;21.80;99.90;;;;;;5064089;28;20063;-75
2022/07/30 09:04:18;;;;;;;15.35;4.32;;;21.80;99.90;;;;;;5052745;28;20036;-72
2022/07/30 09:06:44;;;;;;;14.60;3.97;;;21.80;99.90;;;;;;5053831;28;20432;-75
2022/07/30 09:09:10;;;;;;;13.38;3.95;;;21.80;99.90;;;;;;5063638;28;20383;-75
2022/07/30 09:11:35;;;;;;;11.15;4.05;;;21.70;99.90;;;;;;5049394;28;20052;-73
2022/07/30 09:14:09;;;;;;;15.02;3.90;;;21.80;99.90;;;;;;5065457;28;20423;-72
2022/07/30 09:16:35;;;;;;;9.23;3.87;;;21.90;99.90;;;;;;5054318;28;20053;-73
2022/07/30 09:19:12;;;;;;;9.60;3.90;;;21.80;99.90;;;;;;5068362;28;20056;-72
2022/07/30 09:21:37;;;;;;;9.20;3.20;;;21.90;99.90;;;;;;5069721;28;20044;-73
2022/07/30 09:24:08;;;;;;;14.80;3.83;;;22.10;99.90;;;;;;5068543;28;20094;-74
2022/07/30 09:26:53;;;;;;;7.97;2.97;;;22.20;99.90;;;;;;5070963;28;20191;-72
2022/07/30 09:29:22;;;;;;;13.07;3.67;;;22.20;99.90;;;;;;5049430;28;20522;-72
2022/07/30 09:32:04;;;;;;;8.43;3.40;;;22.30;99.90;;;;;;5049197;28;20044;-71
2022/07/30 09:34:38;;;;;;;10.50;3.60;;;22.20;99.90;;;;;;5068289;28;20554;-73
2022/07/30 09:37:16;;;;;;;9.93;3.20;;;22.20;99.90;;;;;;5068375;28;20048;-73
2022/07/30 09:39:42;;;;;;;8.70;3.25;;;22.40;99.90;;;;;;5069044;28;20342;-72
2022/07/30 09:42:26;;;;;;;8.77;2.90;;;22.40;99.90;;;;;;5066189;28;20079;-72
2022/07/30 09:45:13;;;;;;;14.60;3.28;;;22.60;99.90;;;;;;5066366;28;20037;-73
2022/07/30 09:48:09;;;;;;;13.20;3.33;;;22.90;99.90;;;;;;5064702;28;20040;-71
2022/07/30 09:50:47;;;;;;;14.43;3.20;;;22.70;99.90;;;;;;5062807;28;20114;-73
2022/07/30 09:53:14;;;;;;;12.93;3.80;;;22.70;99.90;;;;;;5068806;28;20060;-71
2022/07/30 09:55:40;;;;;;;7.30;3.00;;;23.00;99.90;;;;;;5063867;28;20110;-73
2022/07/30 09:58:06;;;;;;;9.05;3.35;;;22.90;99.90;;;;;;5049841;28;20044;-71
2022/07/30 10:00:34;;;;;;;11.13;3.00;;;22.90;99.90;;;;;;5066088;28;20091;-70
2022/07/30 10:03:01;;;;;;;8.57;3.60;;;23.20;99.90;;;;;;5052459;28;20117;-70
2022/07/30 10:05:28;;;;;;;9.55;2.90;;;23.00;99.90;;;;;;5046586;28;20053;-73
2022/07/30 10:07:59;;;;;;;9.88;3.30;;;23.00;99.90;;;;;;5068949;28;20095;-73
2022/07/30 10:10:28;;;;;;;7.25;3.25;;;23.20;99.90;;;;;;5068271;28;20061;-74
2022/07/30 10:13:07;;;;;;;11.85;3.03;;;23.20;99.90;;;;;;5076678;28;20040;-73
2022/07/30 10:15:35;;;;;;;8.13;3.03;;;23.50;99.90;;;;;;5062659;28;20467;-75
2022/07/30 10:18:04;;;;;;;7.35;2.88;;;23.40;99.90;;;;;;5049278;28;20476;-74
2022/07/30 10:20:30;;;;;;;7.70;2.55;;;23.50;99.90;;;;;;5051691;28;20056;-74
2022/07/30 10:22:56;;;;;;;7.65;2.60;;;23.70;99.90;;;;;;5065677;28;20056;-75
2022/07/30 10:25:24;;;;;;;9.98;2.80;;;23.90;99.90;;;;;;5063081;28;20048;-73
2022/07/30 10:27:50;;;;;;;10.18;2.92;;;24.10;99.90;;;;;;5068059;28;20115;-72
2022/07/30 10:30:17;;;;;;;8.35;3.20;;;24.10;99.90;;;;;;5068110;28;20076;-74
2022/07/30 10:32:44;;;;;;;8.73;2.60;;;24.20;99.90;;;;;;5058101;28;20036;-73
2022/07/30 10:35:11;;;;;;;8.45;3.00;;;24.30;99.90;;;;;;5054612;28;20037;-73
2022/07/30 10:37:42;;;;;;;8.15;3.03;;;24.30;99.90;;;;;;5062810;28;20101;-73
2022/07/30 10:40:16;;;;;;;12.02;2.90;;;24.10;99.90;;;;;;5069452;28;20142;-74
2022/07/30 10:43:09;;;;;;;10.80;3.25;;;24.20;99.90;;;;;;5061565;28;20052;-75
2022/07/30 10:45:58;;;;;;;11.40;3.15;;;24.10;99.90;;;;;;5066097;28;20080;-72
2022/07/30 10:48:24;;;;;;;8.32;3.42;;;24.10;99.90;;;;;;5048133;28;20052;-73
2022/07/30 10:50:57;;;;;;;7.15;2.58;;;24.30;99.90;;;;;;5066178;28;20487;-74
2022/07/30 10:53:46;;;;;;;6.80;2.63;;;24.50;99.90;;;;;;5069956;28;20514;-73
2022/07/30 10:56:23;;;;;;;8.23;3.00;;;24.60;99.90;;;;;;5061527;28;20060;-73
2022/07/30 10:59:03;;;;;;;9.00;3.05;;;24.70;99.90;;;;;;5044902;28;20090;-75
2022/07/30 11:01:47;;;;;;;7.90;2.78;;;24.50;99.90;;;;;;5046237;28;20060;-76
2022/07/30 11:04:17;;;;;;;9.90;2.90;;;24.20;99.90;;;;;;5059023;28;20041;-76
2022/07/30 11:06:43;;;;;;;6.57;2.78;;;24.20;99.90;;;;;;5064270;28;20167;-74
2022/07/30 11:09:35;;;;;;;9.02;3.10;;;24.10;99.90;;;;;;4989949;28;20041;-75
2022/07/30 11:12:01;;;;;;;7.60;2.80;;;24.40;99.90;;;;;;5048336;28;20041;-77
2022/07/30 11:15:02;;;;;;;5.05;2.22;;;24.50;99.90;;;;;;5052927;28;20048;-77
2022/07/30 11:17:58;;;;;;;10.00;2.67;;;24.50;99.90;;;;;;4992345;28;20057;-74
2022/07/30 11:20:24;;;;;;;11.02;3.00;;;24.60;99.90;;;;;;5010654;28;20549;-77
2022/07/30 11:22:49;;;;;;;6.57;2.33;;;24.60;99.90;;;;;;4994789;28;20045;-74
2022/07/30 11:25:21;;;;;;;6.78;2.30;;;24.80;99.90;;;;;;4976263;28;20042;-73
2022/07/30 11:27:49;;;;;;;7.63;2.67;;;25.00;99.90;;;;;;4992013;28;20058;-77
2022/07/30 11:30:14;;;;;;;7.95;2.70;;;25.30;99.90;;;;;;4994499;28;20046;-75
2022/07/30 11:32:44;;;;;;;8.18;2.30;;;25.70;99.90;;;;;;4988248;28;21441;-75
2022/07/30 11:35:22;;;;;;;8.73;2.10;;;25.50;99.90;;;;;;4982672;28;20121;-77
2022/07/30 11:38:07;;;;;;;7.40;2.10;;;26.00;99.90;;;;;;4993627;28;20121;-76
2022/07/30 11:40:58;;;;;;;4.82;1.63;;;26.30;99.90;;;;;;4986809;28;20046;-73
2022/07/30 11:43:25;;;;;;;8.20;2.30;;;25.90;99.90;;;;;;4993013;28;20083;-77
2022/07/30 11:46:12;;;;;;;5.07;1.90;;;26.00;99.90;;;;;;4986909;28;20042;-75
2022/07/30 11:49:07;;;;;;;5.65;1.80;;;26.40;99.10;;;;;;4989109;28;20162;-76
2022/07/30 11:51:46;;;;;;;4.47;1.88;;;26.80;98.80;;;;;;4976509;28;20050;-74
2022/07/30 11:54:12;;;;;;;6.68;2.05;;;27.30;98.70;;;;;;5050365;28;20384;-75
2022/07/30 11:56:53;;;;;;;5.57;2.00;;;27.60;99.30;;;;;;5057543;28;20056;-73
2022/07/30 11:59:19;;;;;;;7.68;2.03;;;27.60;99.00;;;;;;5069483;28;20066;-74
2022/07/30 12:01:54;;;;;;;10.07;2.10;;;27.60;98.60;;;;;;5065651;28;20036;-76
2022/07/30 12:04:20;;;;;;;8.43;2.30;;;27.20;98.10;;;;;;5051832;28;20098;-73
2022/07/30 12:06:47;;;;;;;6.93;1.90;;;26.60;98.10;;;;;;5070455;28;20040;-73
2022/07/30 12:09:27;;;;;;;8.60;2.63;;;26.90;98.50;;;;;;5063455;28;20104;-74
2022/07/30 12:11:54;;;;;;;4.32;1.85;;;26.70;98.00;;;;;;5051483;28;20463;-75
2022/07/30 12:14:19;;;;;;;6.65;1.80;;;26.90;97.70;;;;;;5069676;28;20045;-78
2022/07/30 12:16:51;;;;;;;4.88;1.75;;;27.10;97.80;;;;;;5069856;28;20040;-74
2022/07/30 12:19:17;;;;;;;8.30;2.08;;;27.30;97.00;;;;;;5070582;28;20102;-76
2022/07/30 12:21:43;;;;;;;5.25;2.00;;;27.50;97.50;;;;;;5067118;28;20126;-76
2022/07/30 12:24:10;;;;;;;4.38;1.88;;;28.10;97.60;;;;;;5049813;28;20045;-74
2022/07/30 12:26:35;;;;;;;5.45;2.05;;;28.40;96.70;;;;;;5048776;28;20049;-75
2022/07/30 12:29:04;;;;;;;5.53;1.67;;;28.10;96.20;;;;;;5056957;28;20333;-76
2022/07/30 12:31:32;;;;;;;5.80;2.17;;;27.70;95.90;;;;;;5065300;28;20052;-74
2022/07/30 12:33:59;;;;;;;6.28;1.83;;;27.40;96.70;;;;;;5059906;28;22108;-76
2022/07/30 12:36:32;;;;;;;5.10;1.83;;;27.40;97.00;;;;;;5054049;28;20044;-76
2022/07/30 12:38:59;;;;;;;4.38;1.90;;;27.60;96.50;;;;;;5069804;28;20306;-74
2022/07/30 12:41:46;;;;;;;4.30;1.65;;;27.80;97.00;;;;;;5059036;28;20542;-75
2022/07/30 12:44:38;;;;;;;4.05;1.70;;;28.00;95.30;;;;;;5051552;28;20045;-74
2022/07/30 12:47:16;;;;;;;6.20;1.80;;;28.60;95.30;;;;;;5066944;28;20085;-76
2022/07/30 12:49:42;;;;;;;6.90;1.67;;;28.60;95.70;;;;;;5050557;28;20044;-77
2022/07/30 12:52:08;;;;;;;4.22;1.90;;;28.80;95.40;;;;;;5065838;28;20048;-75
2022/07/30 12:54:33;;;;;;;10.73;2.08;;;28.70;95.60;;;;;;5052502;28;20044;-79